Ana Sayfa
METAR-TAF:

METAR-TAF

Havaalanları :

University-Oxford_Airport

Oxford, Mississipi, Amerika Birleşik Devletleri

Enlem: 34-23-04N, Boylam: 089-32-08W, yükseklik: 138 m

Güncel hava durumu gözlemi

Rapor saat 17:15 UTC de 20 dakika önce yapıldı.
Rüzgar güney/güneybatıdan 5 kt
Sıcaklık 35°C
Nem 42%
Basınç 1015 hPa
Görüş mesafesi: 16.1 km
Açık gökyüzü

METAR: KUOX 251715Z AUTO 20005KT 10SM CLR 35/20 A2998 RMK AO2 PWINO

Saat: 12:35 (17:35 UTC)


TAF: eksik

4.000'den fazla havaalanı için hava durumu gözlemleri ve tahminleri (METAR ve TAF raporları).

Kullanılabilir istasyonlar harita üzerinde sarı ve kırmızı noktalarla gösterilir.

İstasyonun adını görmek için fareyi noktanın üzerinde gezdirin.

Sonrasında hava gözlem ve tahminlerini görmek için tıklayın.

Haritayı değiştirmek için: yaklaştırmak için siyah artı işaretli yeşil düğmeye ve uzaklaştırmak için de eksi işaretli düğmeye hızla tıklayın; bitişik haritalar için yeşil okları kullanın.


METAR-TAF: